createdAt,value
2023-10-25T00:00:52.736Z,12.99
2023-10-25T00:03:25.816Z,12.98
2023-10-25T00:05:58.748Z,12.98
2023-10-25T00:08:31.859Z,12.97
2023-10-25T00:11:06.399Z,12.96
2023-10-25T00:13:39.265Z,12.93
2023-10-25T00:16:14.550Z,12.93
2023-10-25T00:18:47.630Z,12.90
2023-10-25T00:21:23.367Z,12.90
2023-10-25T00:23:56.330Z,12.89
2023-10-25T00:26:29.196Z,12.87
2023-10-25T00:29:02.510Z,12.86
2023-10-25T00:31:36.832Z,12.85
2023-10-25T00:34:09.745Z,12.84
2023-10-25T00:36:42.730Z,12.82
2023-10-25T00:39:15.637Z,12.81
2023-10-25T00:41:48.506Z,12.83
2023-10-25T00:44:21.354Z,12.83
2023-10-25T00:46:55.658Z,12.82
2023-10-25T00:49:29.686Z,12.81
2023-10-25T00:52:02.818Z,12.81
2023-10-25T00:54:38.358Z,12.82
2023-10-25T00:57:11.944Z,12.81
2023-10-25T00:59:45.163Z,12.80
2023-10-25T01:02:19.856Z,12.80
2023-10-25T01:04:53.370Z,12.82
2023-10-25T01:07:26.252Z,12.82
2023-10-25T01:10:01.933Z,12.82
2023-10-25T01:12:34.919Z,12.81
2023-10-25T01:15:08.779Z,12.81
2023-10-25T01:17:43.112Z,12.81
2023-10-25T01:20:16.344Z,12.81
2023-10-25T01:22:50.783Z,12.81
2023-10-25T01:25:23.666Z,12.82
2023-10-25T01:27:57.010Z,12.82
2023-10-25T01:30:30.933Z,12.83
2023-10-25T01:33:03.924Z,12.84
2023-10-25T01:35:37.458Z,12.85
2023-10-25T01:38:13.894Z,12.85
2023-10-25T01:40:46.869Z,12.85
2023-10-25T01:43:19.761Z,12.86
2023-10-25T01:45:52.685Z,12.87
2023-10-25T01:48:25.861Z,12.90
2023-10-25T01:50:58.772Z,12.89
2023-10-25T01:53:33.339Z,12.88
2023-10-25T01:56:06.910Z,12.88
2023-10-25T01:58:39.831Z,12.89
2023-10-25T02:01:13.027Z,12.87
2023-10-25T02:03:46.492Z,12.98
2023-10-25T02:06:19.603Z,12.90
2023-10-25T02:08:53.871Z,12.90
2023-10-25T02:11:26.906Z,12.90
2023-10-25T02:13:59.839Z,12.94
2023-10-25T02:16:32.823Z,12.94
2023-10-25T02:19:05.876Z,12.96
2023-10-25T02:21:39.332Z,13.08
2023-10-25T02:24:16.981Z,12.99
2023-10-25T02:26:51.721Z,12.98
2023-10-25T02:29:24.720Z,12.98
2023-10-25T02:31:57.729Z,12.98
2023-10-25T02:34:32.792Z,12.98
2023-10-25T02:37:06.665Z,12.97
2023-10-25T02:39:43.618Z,12.98
2023-10-25T02:42:17.263Z,12.97
2023-10-25T02:44:50.108Z,12.97
2023-10-25T02:47:23.049Z,12.98
2023-10-25T02:49:55.943Z,12.99
2023-10-25T02:52:28.959Z,13.02
2023-10-25T02:55:03.496Z,13.03
2023-10-25T02:57:36.467Z,13.03
2023-10-25T03:00:11.392Z,13.03
2023-10-25T03:02:44.289Z,13.05
2023-10-25T03:05:17.294Z,13.05
2023-10-25T03:07:50.215Z,13.06
2023-10-25T03:10:24.458Z,13.08
2023-10-25T03:12:57.419Z,13.09
2023-10-25T03:15:30.389Z,13.09
2023-10-25T03:18:03.617Z,13.12
2023-10-25T03:20:36.852Z,13.14
2023-10-25T03:23:09.784Z,13.16
2023-10-25T03:25:44.103Z,13.17
2023-10-25T03:28:16.951Z,13.16
2023-10-25T03:30:50.484Z,13.14
2023-10-25T03:33:23.481Z,13.14
2023-10-25T03:35:56.444Z,13.15
2023-10-25T03:38:29.451Z,13.17
2023-10-25T03:41:05.643Z,13.20
2023-10-25T03:43:38.975Z,13.21
2023-10-25T03:46:11.953Z,13.22
2023-10-25T03:48:44.874Z,13.22
2023-10-25T03:51:17.939Z,13.23
2023-10-25T03:53:52.110Z,13.22
2023-10-25T03:56:26.390Z,13.22
2023-10-25T03:58:59.266Z,13.21
2023-10-25T04:01:32.195Z,13.22
2023-10-25T04:04:05.629Z,13.23
2023-10-25T04:06:38.601Z,13.24
2023-10-25T04:09:11.515Z,13.24
2023-10-25T04:11:45.754Z,13.23
2023-10-25T04:14:18.606Z,13.25
2023-10-25T04:16:51.552Z,13.25
2023-10-25T04:19:24.555Z,13.23
2023-10-25T04:21:57.544Z,13.22
2023-10-25T04:24:30.421Z,13.21
2023-10-25T04:27:04.913Z,13.20
2023-10-25T04:29:38.058Z,13.20
2023-10-25T04:32:11.015Z,13.18
2023-10-25T04:34:43.893Z,13.19
2023-10-25T04:37:16.755Z,13.20
2023-10-25T04:39:49.672Z,13.19
2023-10-25T04:42:24.111Z,13.19
2023-10-25T04:44:57.038Z,13.20
2023-10-25T04:47:29.964Z,13.20
2023-10-25T04:50:05.781Z,13.20
2023-10-25T04:52:38.670Z,13.20
2023-10-25T04:55:12.631Z,13.19
2023-10-25T04:57:46.889Z,13.18
2023-10-25T05:00:20.289Z,13.21
2023-10-25T05:02:53.221Z,13.23
2023-10-25T05:05:26.411Z,13.24
2023-10-25T05:07:59.719Z,13.25
2023-10-25T05:10:33.818Z,13.25
2023-10-25T05:13:08.847Z,13.24
2023-10-25T05:15:42.335Z,13.23
2023-10-25T05:18:15.893Z,13.23
2023-10-25T05:20:50.515Z,13.24
2023-10-25T05:23:24.899Z,13.23
2023-10-25T05:25:58.730Z,13.25
2023-10-25T05:28:34.205Z,13.27
2023-10-25T05:31:08.110Z,13.29
2023-10-25T05:33:41.395Z,13.31
2023-10-25T05:36:16.094Z,13.31
2023-10-25T05:38:49.622Z,13.33
2023-10-25T05:41:25.719Z,13.36
2023-10-25T05:44:03.553Z,13.38
2023-10-25T05:46:36.436Z,13.39
2023-10-25T05:49:12.142Z,13.40
2023-10-25T05:51:48.254Z,13.40
2023-10-25T05:54:21.673Z,13.42
2023-10-25T05:56:55.248Z,13.45
2023-10-25T05:59:30.261Z,13.46
2023-10-25T06:02:10.090Z,13.47
2023-10-25T06:04:45.271Z,13.50
2023-10-25T06:07:18.932Z,13.50
2023-10-25T06:09:52.500Z,13.53
2023-10-25T06:12:25.992Z,13.54
2023-10-25T06:15:00.191Z,13.54
2023-10-25T06:17:33.133Z,13.54
2023-10-25T06:20:07.341Z,13.55
2023-10-25T06:22:40.357Z,13.56
2023-10-25T06:25:14.122Z,13.56
2023-10-25T06:27:47.483Z,13.57
2023-10-25T06:30:21.782Z,13.57
2023-10-25T06:32:54.778Z,13.59
2023-10-25T06:35:27.786Z,13.59
2023-10-25T06:38:00.962Z,13.60
2023-10-25T06:40:34.224Z,13.61
2023-10-25T06:43:07.685Z,13.61
2023-10-25T06:45:43.127Z,13.63
2023-10-25T06:48:16.948Z,13.67
2023-10-25T06:50:49.872Z,13.84
2023-10-25T06:53:24.170Z,13.76
2023-10-25T06:55:57.674Z,13.76
2023-10-25T06:58:31.153Z,13.79
2023-10-25T07:01:07.461Z,13.81
2023-10-25T07:03:46.944Z,13.84
2023-10-25T07:06:20.410Z,13.85
2023-10-25T07:08:54.023Z,13.87
2023-10-25T07:11:26.822Z,14.01
2023-10-25T07:13:59.768Z,13.93
2023-10-25T07:16:34.236Z,13.92
2023-10-25T07:19:07.272Z,13.94
2023-10-25T07:21:40.156Z,13.94
2023-10-25T07:24:13.178Z,13.93
2023-10-25T07:26:46.023Z,13.95
2023-10-25T07:29:18.922Z,13.95
2023-10-25T07:31:53.461Z,13.97
2023-10-25T07:34:26.418Z,13.99
2023-10-25T07:37:01.133Z,14.01
2023-10-25T07:39:34.128Z,14.03
2023-10-25T07:42:07.170Z,14.07
2023-10-25T07:44:40.355Z,14.07
2023-10-25T07:47:15.753Z,14.07
2023-10-25T07:49:48.672Z,14.08
2023-10-25T07:52:22.654Z,14.08
2023-10-25T07:54:55.714Z,14.08
2023-10-25T07:58:04.601Z,14.09
2023-10-25T08:00:22.185Z,14.08
2023-10-25T08:02:56.530Z,14.07
2023-10-25T08:05:29.461Z,14.06
2023-10-25T08:08:02.328Z,14.05
2023-10-25T08:10:37.627Z,14.05
2023-10-25T08:13:10.798Z,14.01
2023-10-25T08:15:45.219Z,14.00
2023-10-25T08:18:19.668Z,13.98
2023-10-25T08:20:52.612Z,13.96
2023-10-25T08:23:25.694Z,13.92
2023-10-25T08:26:01.608Z,13.90
2023-10-25T08:28:36.367Z,13.89
2023-10-25T08:31:13.077Z,13.88
2023-10-25T08:33:47.952Z,13.89
2023-10-25T08:36:20.904Z,13.89
2023-10-25T08:38:53.831Z,13.89
2023-10-25T08:41:28.421Z,13.91
2023-10-25T08:44:01.381Z,13.96
2023-10-25T08:46:36.130Z,14.01
2023-10-25T08:49:10.389Z,14.06
2023-10-25T08:51:48.409Z,14.10
2023-10-25T08:54:27.340Z,14.16
2023-10-25T08:57:00.340Z,14.20
2023-10-25T08:59:41.396Z,14.21
2023-10-25T09:02:15.037Z,14.20
2023-10-25T09:05:08.978Z,14.19
2023-10-25T09:07:42.239Z,14.09
2023-10-25T09:10:18.837Z,14.01
2023-10-25T09:12:53.870Z,13.94
2023-10-25T09:15:32.647Z,13.89
2023-10-25T09:18:05.822Z,13.81
2023-10-25T09:20:40.200Z,13.78
2023-10-25T09:23:14.028Z,13.77
2023-10-25T09:25:47.158Z,13.88
2023-10-25T09:28:28.539Z,13.75
2023-10-25T09:31:03.018Z,13.72
2023-10-25T09:33:35.990Z,13.72
2023-10-25T09:36:10.394Z,13.71
2023-10-25T09:38:43.528Z,13.70
2023-10-25T09:41:19.009Z,13.71
2023-10-25T09:43:53.698Z,13.73
2023-10-25T09:46:31.211Z,13.76
2023-10-25T09:49:07.940Z,13.79
2023-10-25T09:51:53.649Z,13.83
2023-10-25T09:54:33.082Z,13.83
2023-10-25T09:57:07.460Z,13.85
2023-10-25T09:59:41.270Z,13.87
2023-10-25T10:02:21.936Z,13.86
2023-10-25T10:04:58.806Z,13.86
2023-10-25T10:07:44.892Z,13.91
2023-10-25T10:10:23.495Z,13.90
2023-10-25T10:12:58.193Z,13.90
2023-10-25T10:16:06.495Z,13.94
2023-10-25T10:18:45.814Z,13.88
2023-10-25T10:21:18.795Z,13.85
2023-10-25T10:23:53.253Z,13.82
2023-10-25T10:26:51.126Z,13.85
2023-10-25T10:29:39.293Z,13.81
2023-10-25T10:32:13.066Z,13.76
2023-10-25T10:34:47.584Z,13.72
2023-10-25T10:37:22.230Z,13.67
2023-10-25T10:40:16.313Z,13.70
2023-10-25T10:42:49.318Z,13.67
2023-10-25T10:45:22.330Z,13.65
2023-10-25T10:48:00.282Z,13.65
2023-10-25T10:50:33.332Z,13.63
2023-10-25T10:53:06.528Z,13.60
2023-10-25T10:55:41.421Z,13.53
2023-10-25T10:58:14.388Z,13.48
2023-10-25T11:00:47.444Z,13.44
2023-10-25T11:03:20.807Z,13.44
2023-10-25T11:05:54.203Z,13.39
2023-10-25T11:08:27.176Z,13.37
2023-10-25T11:11:02.371Z,13.35
2023-10-25T11:13:35.563Z,13.33
2023-10-25T11:16:10.450Z,13.31
2023-10-25T11:18:43.785Z,13.28
2023-10-25T11:21:16.731Z,13.23
2023-10-25T11:23:49.715Z,13.20
2023-10-25T11:26:24.457Z,13.11
2023-10-25T11:28:57.484Z,13.03
2023-10-25T11:31:34.335Z,12.96
2023-10-25T11:34:07.276Z,12.88
2023-10-25T11:36:40.676Z,12.84
2023-10-25T11:39:13.657Z,12.80
2023-10-25T11:41:47.929Z,12.77
2023-10-25T11:44:23.222Z,12.72
2023-10-25T11:46:59.728Z,12.72
2023-10-25T11:49:34.224Z,12.74
2023-10-25T11:52:07.967Z,12.72
2023-10-25T11:54:40.928Z,12.73
2023-10-25T11:57:15.544Z,12.73
2023-10-25T11:59:48.572Z,12.75
2023-10-25T12:02:22.775Z,12.75
2023-10-25T12:04:56.441Z,12.70
2023-10-25T12:07:29.310Z,12.77
2023-10-25T12:10:02.346Z,12.64
2023-10-25T12:12:36.551Z,12.58
2023-10-25T12:15:10.281Z,12.54
2023-10-25T12:17:43.285Z,12.53
2023-10-25T12:20:26.784Z,12.53
2023-10-25T12:23:00.306Z,12.56
2023-10-25T12:25:35.942Z,12.55
2023-10-25T12:28:10.193Z,12.56
2023-10-25T12:30:43.237Z,12.54
2023-10-25T12:33:16.198Z,12.54
2023-10-25T12:35:50.600Z,12.54
2023-10-25T12:38:23.581Z,12.52
2023-10-25T12:40:56.480Z,12.51
2023-10-25T12:43:30.832Z,12.52
2023-10-25T12:46:03.693Z,12.53
2023-10-25T12:48:39.731Z,12.53
2023-10-25T12:51:12.725Z,12.50
2023-10-25T12:53:45.676Z,12.48
2023-10-25T12:56:18.698Z,12.47
2023-10-25T12:58:56.399Z,12.47
2023-10-25T13:01:29.449Z,12.48
2023-10-25T13:04:02.490Z,12.48
2023-10-25T13:06:35.454Z,12.49
2023-10-25T13:09:08.693Z,12.49
2023-10-25T13:11:41.695Z,12.49
2023-10-25T13:14:15.997Z,12.49
2023-10-25T13:16:48.900Z,12.49
2023-10-25T13:19:21.988Z,12.52
2023-10-25T13:21:54.906Z,12.52
2023-10-25T13:24:28.089Z,12.50
2023-10-25T13:27:01.189Z,12.47
2023-10-25T13:29:35.787Z,12.46
2023-10-25T13:32:09.487Z,12.46
2023-10-25T13:34:44.220Z,12.55
2023-10-25T13:37:17.353Z,12.45
2023-10-25T13:39:53.124Z,12.43
2023-10-25T13:42:26.800Z,12.42
2023-10-25T13:45:02.801Z,12.37
2023-10-25T13:47:35.883Z,12.32
2023-10-25T13:50:09.445Z,12.32
2023-10-25T13:52:42.358Z,12.32
2023-10-25T13:55:15.406Z,12.31
2023-10-25T13:57:48.309Z,12.30
2023-10-25T14:00:22.895Z,12.31
2023-10-25T14:02:55.983Z,12.30
2023-10-25T14:05:29.062Z,12.31
2023-10-25T14:08:02.481Z,12.31
2023-10-25T14:10:35.522Z,12.30
2023-10-25T14:13:17.056Z,12.29
2023-10-25T14:16:07.858Z,12.30
2023-10-25T14:18:41.007Z,12.30
2023-10-25T14:21:17.371Z,12.30
2023-10-25T14:23:53.522Z,12.28
2023-10-25T14:26:26.433Z,12.27
2023-10-25T14:28:59.512Z,12.25
2023-10-25T14:31:35.657Z,12.25
2023-10-25T14:34:08.658Z,12.26
2023-10-25T14:36:44.562Z,12.26
2023-10-25T14:39:17.467Z,12.26
2023-10-25T14:41:50.369Z,12.28
2023-10-25T14:44:23.271Z,12.29
2023-10-25T14:46:57.758Z,12.25
2023-10-25T14:49:30.822Z,12.24
2023-10-25T14:52:05.172Z,12.22
2023-10-25T14:54:38.081Z,12.20
2023-10-25T14:57:10.994Z,12.20
2023-10-25T14:59:44.925Z,12.20
2023-10-25T15:02:19.494Z,12.19
2023-10-25T15:04:52.550Z,12.15
2023-10-25T15:07:26.428Z,12.12
2023-10-25T15:09:59.329Z,12.10
2023-10-25T15:12:32.437Z,12.08
2023-10-25T15:15:06.010Z,12.06
2023-10-25T15:17:40.611Z,12.07
2023-10-25T15:20:15.343Z,12.07
2023-10-25T15:22:48.326Z,12.07
2023-10-25T15:25:24.307Z,12.06
2023-10-25T15:27:57.266Z,12.07
2023-10-25T15:30:30.306Z,12.09
2023-10-25T15:33:07.270Z,12.10
2023-10-25T15:35:40.365Z,12.10
2023-10-25T15:38:13.306Z,12.12
2023-10-25T15:40:46.195Z,12.15
2023-10-25T15:43:19.438Z,12.16
2023-10-25T15:45:52.406Z,12.15
2023-10-25T15:48:27.135Z,12.15
2023-10-25T15:51:01.511Z,12.17
2023-10-25T15:53:34.481Z,12.17
2023-10-25T15:56:07.753Z,12.14
2023-10-25T15:58:41.299Z,12.14
2023-10-25T16:01:23.100Z,12.14
2023-10-25T16:04:06.624Z,12.12
2023-10-25T16:06:39.773Z,12.11
2023-10-25T16:09:12.810Z,12.08
2023-10-25T16:11:45.760Z,12.08
2023-10-25T16:14:18.769Z,12.11
2023-10-25T16:16:51.753Z,12.11
2023-10-25T16:19:26.191Z,12.12
2023-10-25T16:21:59.130Z,12.14
2023-10-25T16:24:32.085Z,12.17
2023-10-25T16:27:05.599Z,12.15
2023-10-25T16:29:38.603Z,12.20
2023-10-25T16:32:11.448Z,12.22
2023-10-25T16:34:45.699Z,12.24
2023-10-25T16:37:22.406Z,12.23
2023-10-25T16:39:58.912Z,12.25
2023-10-25T16:42:32.469Z,12.27
2023-10-25T16:45:05.542Z,12.42
2023-10-25T16:47:38.618Z,12.33
2023-10-25T16:50:12.921Z,12.33
2023-10-25T16:52:46.286Z,12.33
2023-10-25T16:55:20.122Z,12.34
2023-10-25T16:57:53.137Z,12.33
2023-10-25T17:00:26.844Z,12.34
2023-10-25T17:03:01.554Z,12.44
2023-10-25T17:05:35.967Z,12.33
2023-10-25T17:08:08.897Z,12.31
2023-10-25T17:10:41.904Z,12.30
2023-10-25T17:13:14.960Z,12.31
2023-10-25T17:15:47.887Z,12.32
2023-10-25T17:18:21.113Z,12.32
2023-10-25T17:20:56.669Z,12.31
2023-10-25T17:23:29.617Z,12.31
2023-10-25T17:26:04.928Z,12.31
2023-10-25T17:28:37.933Z,12.30
2023-10-25T17:31:10.967Z,12.29
2023-10-25T17:33:43.995Z,12.26
2023-10-25T17:36:19.389Z,12.22
2023-10-25T17:38:52.447Z,12.18
2023-10-25T17:41:25.382Z,12.15
2023-10-25T17:43:58.322Z,12.13
2023-10-25T17:46:31.303Z,12.11
2023-10-25T17:49:04.200Z,12.09
2023-10-25T17:51:38.526Z,12.09
2023-10-25T17:54:11.360Z,12.09
2023-10-25T17:56:44.271Z,12.12
2023-10-25T17:59:17.224Z,12.11
2023-10-25T18:01:53.309Z,12.12
2023-10-25T18:04:26.288Z,12.13
2023-10-25T18:07:07.977Z,12.12
2023-10-25T18:09:41.716Z,12.12
2023-10-25T18:12:14.656Z,12.11
2023-10-25T18:14:50.001Z,12.11
2023-10-25T18:17:23.034Z,12.09
2023-10-25T18:19:56.103Z,12.10
2023-10-25T18:22:46.328Z,12.13
2023-10-25T18:25:21.950Z,12.09
2023-10-25T18:27:55.614Z,12.06
2023-10-25T18:31:56.988Z,12.03
2023-10-25T18:33:31.716Z,12.02
2023-10-25T18:36:11.899Z,12.02
2023-10-25T18:38:46.065Z,12.12
2023-10-25T18:41:18.108Z,12.03
2023-10-25T18:43:51.095Z,12.02
2023-10-25T18:46:24.114Z,12.02
2023-10-25T18:48:56.987Z,12.01
2023-10-25T18:51:29.868Z,12.02
2023-10-25T18:54:04.621Z,12.03
2023-10-25T18:56:37.520Z,12.03
2023-10-25T18:59:11.243Z,12.05
2023-10-25T19:01:44.151Z,12.17
2023-10-25T19:04:17.406Z,12.09
2023-10-25T19:06:51.478Z,12.07
2023-10-25T19:09:26.268Z,12.07
2023-10-25T19:12:00.501Z,12.06
2023-10-25T19:14:33.825Z,12.08
2023-10-25T19:17:07.010Z,12.09
2023-10-25T19:19:45.306Z,12.09
2023-10-25T19:22:25.591Z,12.10
2023-10-25T19:25:00.026Z,12.10
2023-10-25T19:27:33.012Z,12.09
2023-10-25T19:30:06.847Z,12.10
2023-10-25T19:32:39.798Z,12.11
2023-10-25T19:35:13.623Z,12.10
2023-10-25T19:37:46.555Z,12.08
2023-10-25T19:40:21.050Z,12.08
2023-10-25T19:42:53.964Z,12.08
2023-10-25T19:45:27.617Z,12.07
2023-10-25T19:48:00.612Z,12.19
2023-10-25T19:50:33.759Z,12.12
2023-10-25T19:53:06.741Z,12.14
2023-10-25T19:55:40.991Z,12.15
2023-10-25T19:58:13.930Z,12.18
2023-10-25T20:00:46.858Z,12.19
2023-10-25T20:03:20.015Z,12.22
2023-10-25T20:05:53.520Z,12.21
2023-10-25T20:08:26.466Z,12.21
2023-10-25T20:11:04.685Z,12.21
2023-10-25T20:13:37.618Z,12.21
2023-10-25T20:16:10.569Z,12.21
2023-10-25T20:18:45.222Z,12.20
2023-10-25T20:21:18.345Z,12.20
2023-10-25T20:23:51.320Z,12.22
2023-10-25T20:26:33.510Z,12.23
2023-10-25T20:29:08.179Z,12.26
2023-10-25T20:31:41.065Z,12.25
2023-10-25T20:34:13.945Z,12.27
2023-10-25T20:36:46.824Z,12.29
2023-10-25T20:39:19.789Z,12.30
2023-10-25T20:41:54.068Z,12.30
2023-10-25T20:44:27.020Z,12.30
2023-10-25T20:47:00.005Z,12.32
2023-10-25T20:49:33.121Z,12.33
2023-10-25T20:52:08.464Z,12.33
2023-10-25T20:54:41.473Z,12.30
2023-10-25T20:57:15.892Z,12.29
2023-10-25T20:59:51.794Z,12.29
2023-10-25T21:02:24.819Z,12.29
2023-10-25T21:04:57.723Z,12.29
2023-10-25T21:07:30.643Z,12.28
2023-10-25T21:10:03.728Z,12.25
2023-10-25T21:12:37.959Z,12.26
2023-10-25T21:15:13.731Z,12.24
2023-10-25T21:17:46.694Z,12.25
2023-10-25T21:20:20.655Z,12.27
2023-10-25T21:22:53.518Z,12.28
2023-10-25T21:25:26.741Z,12.27
2023-10-25T21:28:00.947Z,12.26
2023-10-25T21:30:33.890Z,12.26
2023-10-25T21:33:07.977Z,12.25
2023-10-25T21:35:41.317Z,12.25
2023-10-25T21:38:14.238Z,12.26
2023-10-25T21:40:47.046Z,12.28
2023-10-25T21:43:21.256Z,12.30
2023-10-25T21:45:54.344Z,12.30
2023-10-25T21:48:27.933Z,12.33
2023-10-25T21:51:01.125Z,12.46
2023-10-25T21:53:35.031Z,12.37
2023-10-25T21:56:22.614Z,12.35
2023-10-25T21:59:50.130Z,12.34
2023-10-25T22:01:50.947Z,12.49
2023-10-25T22:04:24.546Z,12.37
2023-10-25T22:06:58.256Z,12.49
2023-10-25T22:09:31.495Z,12.40
2023-10-25T22:12:04.575Z,12.41
2023-10-25T22:14:38.748Z,12.41
2023-10-25T22:17:11.752Z,12.44
2023-10-25T22:19:44.649Z,12.44
2023-10-25T22:22:17.510Z,12.43
2023-10-25T22:24:50.398Z,12.44
2023-10-25T22:27:23.391Z,12.46
2023-10-25T22:29:57.655Z,12.46
2023-10-25T22:32:30.532Z,12.47
2023-10-25T22:35:03.741Z,12.46
2023-10-25T22:37:36.663Z,12.46
2023-10-25T22:40:10.585Z,12.45
2023-10-25T22:42:43.643Z,12.42
2023-10-25T22:45:18.009Z,12.38
2023-10-25T22:47:51.055Z,12.33
2023-10-25T22:50:24.053Z,12.29
2023-10-25T22:52:56.929Z,12.23
2023-10-25T22:55:29.765Z,12.19
2023-10-25T22:58:02.610Z,12.17
2023-10-25T23:00:36.837Z,12.16
2023-10-25T23:03:09.765Z,12.14
2023-10-25T23:05:45.997Z,12.12
2023-10-25T23:08:18.900Z,12.07
2023-10-25T23:10:51.807Z,12.01
2023-10-25T23:13:24.676Z,11.92
2023-10-25T23:16:02.639Z,11.85
2023-10-25T23:18:35.667Z,11.76
2023-10-25T23:21:08.671Z,11.69
2023-10-25T23:23:41.529Z,11.62
2023-10-25T23:26:14.432Z,11.56
2023-10-25T23:28:47.312Z,11.49
2023-10-25T23:31:21.565Z,11.43
2023-10-25T23:33:54.476Z,11.37
2023-10-25T23:36:27.406Z,11.32
2023-10-25T23:39:00.311Z,11.25
2023-10-25T23:41:33.253Z,11.20
2023-10-25T23:44:06.573Z,11.16
2023-10-25T23:46:40.849Z,11.12
2023-10-25T23:49:13.724Z,11.09
2023-10-25T23:51:46.757Z,11.09
2023-10-25T23:54:53.169Z,11.08
2023-10-25T23:57:12.488Z,11.10
2023-10-25T23:59:45.568Z,11.12
